createdAt,value
2019-03-26T00:01:42.655Z,26.30
2019-03-26T00:04:38.305Z,26.30
2019-03-26T00:07:34.066Z,26.30
2019-03-26T00:10:29.885Z,26.30
2019-03-26T00:13:25.854Z,26.30
2019-03-26T00:16:21.719Z,26.40
2019-03-26T00:19:17.688Z,26.40
2019-03-26T00:22:13.443Z,26.40
2019-03-26T00:25:09.505Z,26.40
2019-03-26T00:28:06.117Z,26.40
2019-03-26T00:31:02.113Z,26.40
2019-03-26T00:33:58.972Z,26.40
2019-03-26T00:36:54.999Z,26.50
2019-03-26T00:39:50.337Z,26.50
2019-03-26T00:42:45.852Z,26.50
2019-03-26T00:45:41.535Z,26.50
2019-03-26T00:48:38.613Z,26.50
2019-03-26T00:51:34.308Z,26.50
2019-03-26T00:54:29.844Z,26.50
2019-03-26T00:57:25.193Z,26.50
2019-03-26T01:00:25.518Z,26.50
2019-03-26T01:03:21.042Z,26.60
2019-03-26T01:06:16.836Z,26.50
2019-03-26T01:09:12.855Z,26.60
2019-03-26T01:12:08.817Z,26.60
2019-03-26T01:15:04.570Z,26.60
2019-03-26T01:18:00.293Z,26.60
2019-03-26T01:20:55.743Z,26.60
2019-03-26T01:23:51.788Z,26.60
2019-03-26T01:26:47.881Z,26.60
2019-03-26T01:29:43.856Z,26.60
2019-03-26T01:32:39.629Z,26.70
2019-03-26T01:35:36.179Z,26.70
2019-03-26T01:38:32.046Z,26.70
2019-03-26T01:41:28.333Z,26.70
2019-03-26T01:44:24.063Z,26.70
2019-03-26T01:47:20.239Z,26.70
2019-03-26T01:50:16.227Z,26.70
2019-03-26T01:53:11.681Z,26.70
2019-03-26T01:56:06.966Z,26.70
2019-03-26T01:59:12.447Z,26.70
2019-03-26T02:02:04.282Z,26.70
2019-03-26T02:05:00.628Z,26.70
2019-03-26T02:07:57.722Z,26.70
2019-03-26T02:10:56.131Z,26.70
2019-03-26T02:13:55.038Z,26.70
2019-03-26T02:16:50.763Z,26.70
2019-03-26T02:19:46.379Z,26.70
2019-03-26T02:22:41.873Z,26.70
2019-03-26T02:25:37.428Z,26.70
2019-03-26T02:28:33.456Z,26.80
2019-03-26T02:31:29.201Z,26.70
2019-03-26T02:34:24.878Z,26.80
2019-03-26T02:37:20.728Z,26.80
2019-03-26T02:40:16.735Z,26.80
2019-03-26T02:43:12.246Z,26.80
2019-03-26T02:46:07.954Z,26.80
2019-03-26T02:49:08.108Z,26.90
2019-03-26T02:52:03.885Z,26.90
2019-03-26T02:55:00.970Z,26.90
2019-03-26T02:57:56.868Z,26.90
2019-03-26T03:00:53.204Z,26.90
2019-03-26T03:03:49.126Z,26.90
2019-03-26T03:06:44.996Z,26.90
2019-03-26T03:09:42.332Z,27.00
2019-03-26T03:12:38.852Z,27.00
2019-03-26T03:15:36.684Z,27.00
2019-03-26T03:18:34.158Z,27.00
2019-03-26T03:21:29.878Z,27.00
2019-03-26T03:24:26.236Z,27.00
2019-03-26T03:27:22.094Z,27.00
2019-03-26T03:30:17.765Z,27.00
2019-03-26T03:33:14.680Z,27.00
2019-03-26T03:36:12.749Z,27.00
2019-03-26T03:39:09.775Z,27.00
2019-03-26T03:42:06.500Z,27.00
2019-03-26T03:45:08.148Z,27.00
2019-03-26T03:48:04.737Z,27.00
2019-03-26T03:51:02.036Z,27.10
2019-03-26T03:53:58.221Z,27.10
2019-03-26T03:56:56.047Z,27.10
2019-03-26T03:59:52.189Z,27.10
2019-03-26T04:02:47.590Z,27.10
2019-03-26T04:05:44.004Z,27.10
2019-03-26T04:08:41.520Z,27.10
2019-03-26T04:11:37.159Z,27.00
2019-03-26T04:14:32.939Z,26.90
2019-03-26T04:17:28.662Z,26.70
2019-03-26T04:20:24.508Z,26.70
2019-03-26T04:23:20.021Z,26.60
2019-03-26T04:26:15.633Z,26.50
2019-03-26T04:29:11.368Z,26.40
2019-03-26T04:32:06.842Z,26.30
2019-03-26T04:35:04.441Z,26.20
2019-03-26T04:38:01.482Z,26.10
2019-03-26T05:04:37.399Z,25.60
2019-03-26T05:07:35.064Z,25.60
2019-03-26T05:10:33.636Z,25.50
2019-03-26T05:13:33.012Z,25.50
2019-03-26T05:16:33.044Z,25.40
2019-03-26T05:19:30.321Z,25.40
2019-03-26T05:22:28.184Z,25.30
2019-03-26T05:25:27.450Z,25.30
2019-03-26T05:28:27.749Z,25.30
2019-03-26T05:31:26.048Z,25.30
2019-03-26T05:34:22.593Z,25.30
2019-03-26T05:37:18.739Z,25.30
2019-03-26T05:40:19.754Z,25.40
2019-03-26T05:43:19.886Z,25.60
2019-03-26T05:46:22.128Z,25.80
2019-03-26T05:49:23.047Z,25.80
2019-03-26T05:52:22.560Z,26.00
2019-03-26T05:55:22.165Z,26.10
2019-03-26T05:58:25.669Z,26.20
2019-03-26T06:01:29.689Z,26.30
2019-03-26T06:04:30.873Z,26.40
2019-03-26T06:07:38.499Z,26.50
2019-03-26T06:10:44.248Z,26.50
2019-03-26T06:13:41.526Z,26.60
2019-03-26T06:16:42.627Z,26.70
2019-03-26T06:19:57.275Z,26.70
2019-03-26T06:22:55.651Z,26.80
2019-03-26T06:25:57.382Z,26.90
2019-03-26T06:28:57.206Z,27.00
2019-03-26T06:31:58.949Z,27.00
2019-03-26T06:34:55.563Z,27.00
2019-03-26T06:37:52.654Z,27.10
2019-03-26T06:41:01.540Z,27.10
2019-03-26T06:44:05.124Z,27.20
2019-03-26T06:47:02.072Z,27.20
2019-03-26T06:50:05.951Z,27.30
2019-03-26T06:53:05.901Z,27.30
2019-03-26T06:56:04.428Z,27.30
2019-03-26T06:59:45.144Z,27.40
2019-03-26T07:03:17.347Z,27.40
2019-03-26T07:07:03.704Z,27.40
2019-03-26T07:10:25.251Z,27.50
2019-03-26T07:13:58.276Z,27.50
2019-03-26T07:17:18.358Z,27.50
2019-03-26T07:20:17.527Z,27.60
2019-03-26T07:23:42.104Z,27.60
2019-03-26T07:27:00.919Z,27.60
2019-03-26T07:30:45.571Z,27.70
2019-03-26T07:34:01.132Z,27.70
2019-03-26T07:38:03.927Z,27.70
2019-03-26T07:41:30.440Z,27.70
2019-03-26T07:44:46.143Z,27.80
2019-03-26T07:47:45.784Z,27.80
2019-03-26T07:51:06.059Z,27.80
2019-03-26T07:54:27.983Z,27.80
2019-03-26T07:57:32.078Z,27.80
2019-03-26T08:00:36.721Z,27.80
2019-03-26T08:03:39.913Z,27.80
2019-03-26T08:06:37.338Z,27.80
2019-03-26T08:09:50.624Z,27.90
2019-03-26T08:13:12.158Z,27.90
2019-03-26T08:16:42.860Z,27.90
2019-03-26T08:19:41.574Z,27.90
2019-03-26T08:22:39.314Z,27.90
2019-03-26T08:25:45.052Z,28.00
2019-03-26T08:28:51.840Z,28.00
2019-03-26T08:31:49.541Z,27.90
2019-03-26T08:34:50.193Z,28.00
2019-03-26T08:37:49.284Z,28.00
2019-03-26T08:40:46.586Z,28.00
2019-03-26T08:43:48.090Z,28.00
2019-03-26T08:46:46.393Z,28.00
2019-03-26T08:49:44.569Z,28.00
2019-03-26T08:52:47.308Z,28.10
2019-03-26T08:55:58.330Z,28.10
2019-03-26T08:59:02.666Z,28.10
2019-03-26T09:16:23.690Z,28.10
2019-03-26T09:19:22.374Z,28.10
2019-03-26T09:22:20.130Z,28.20
2019-03-26T09:25:20.846Z,28.20
2019-03-26T09:28:19.506Z,28.20
2019-03-26T09:31:17.824Z,28.20
2019-03-26T09:34:14.587Z,28.20
2019-03-26T09:37:10.784Z,28.20
2019-03-26T09:40:07.818Z,28.20
2019-03-26T09:43:03.529Z,28.20
2019-03-26T09:46:01.075Z,28.20
2019-03-26T09:49:11.436Z,28.20
2019-03-26T09:52:17.425Z,28.30
2019-03-26T09:55:20.353Z,28.20
2019-03-26T09:58:20.817Z,28.20
2019-03-26T10:01:23.288Z,28.20
2019-03-26T10:04:20.318Z,28.20
2019-03-26T10:07:21.816Z,28.30
2019-03-26T10:10:21.518Z,28.30
2019-03-26T10:13:21.332Z,28.30
2019-03-26T10:16:21.800Z,28.30
2019-03-26T10:19:18.104Z,28.30
2019-03-26T10:22:19.840Z,28.30
2019-03-26T10:25:14.162Z,28.30
2019-03-26T10:28:10.042Z,28.30
2019-03-26T10:31:10.255Z,28.30
2019-03-26T10:34:07.862Z,28.30
2019-03-26T10:37:04.964Z,28.30
2019-03-26T10:40:01.426Z,28.30
2019-03-26T10:43:01.062Z,28.40
2019-03-26T10:45:58.846Z,28.40
2019-03-26T10:48:55.186Z,28.40
2019-03-26T10:51:51.247Z,28.40
2019-03-26T10:54:47.697Z,28.50
2019-03-26T10:57:43.547Z,28.50
2019-03-26T11:00:40.003Z,28.50
2019-03-26T11:03:36.688Z,28.50
2019-03-26T11:06:35.399Z,28.50
2019-03-26T11:09:35.482Z,28.50
2019-03-26T11:12:31.932Z,28.50
2019-03-26T11:15:29.346Z,28.50
2019-03-26T11:18:25.880Z,28.50
2019-03-26T11:21:22.907Z,28.50
2019-03-26T11:24:27.419Z,28.50
2019-03-26T11:27:50.208Z,28.50
2019-03-26T11:30:46.580Z,28.50
2019-03-26T11:33:43.133Z,28.50
2019-03-26T11:36:43.693Z,28.50
2019-03-26T11:39:42.053Z,28.50
2019-03-26T11:42:42.840Z,28.50
2019-03-26T11:45:38.484Z,28.50
2019-03-26T11:48:34.597Z,28.50
2019-03-26T11:51:32.158Z,28.50
2019-03-26T11:54:28.939Z,28.50
2019-03-26T11:57:24.736Z,28.50
2019-03-26T12:00:26.175Z,28.50
2019-03-26T12:03:26.613Z,28.50
2019-03-26T12:06:23.573Z,28.50
2019-03-26T12:09:20.195Z,28.40
2019-03-26T12:12:18.727Z,28.50
2019-03-26T12:15:17.777Z,28.50
2019-03-26T12:18:17.701Z,28.50
2019-03-26T12:21:17.378Z,28.50
2019-03-26T12:24:13.483Z,28.50
2019-03-26T12:27:15.273Z,28.40
2019-03-26T12:30:12.207Z,28.50
2019-03-26T12:33:08.995Z,28.40
2019-03-26T12:36:04.374Z,28.40
2019-03-26T12:38:59.649Z,28.40
2019-03-26T12:41:56.193Z,28.40
2019-03-26T12:44:59.811Z,28.50
2019-03-26T12:47:56.775Z,28.40
2019-03-26T12:50:52.998Z,28.40
2019-03-26T12:53:48.817Z,28.50
2019-03-26T12:56:45.170Z,28.50
2019-03-26T12:59:41.254Z,28.40
2019-03-26T13:02:38.510Z,28.50
2019-03-26T13:05:34.685Z,28.50
2019-03-26T13:08:31.147Z,28.40
2019-03-26T13:11:28.052Z,28.40
2019-03-26T13:14:24.756Z,28.50
2019-03-26T13:17:20.880Z,28.50
2019-03-26T13:20:17.807Z,28.40
2019-03-26T13:23:14.373Z,28.40
2019-03-26T13:26:12.265Z,28.40
2019-03-26T13:29:23.320Z,28.40
2019-03-26T13:32:20.585Z,28.40
2019-03-26T13:35:16.585Z,28.40
2019-03-26T13:38:15.564Z,28.40
2019-03-26T13:41:11.435Z,28.40
2019-03-26T13:44:07.615Z,28.40
2019-03-26T13:47:04.503Z,28.40
2019-03-26T13:50:00.707Z,28.40
2019-03-26T13:52:56.736Z,28.40
2019-03-26T13:55:53.186Z,28.40
2019-03-26T13:58:48.646Z,28.40
2019-03-26T14:01:44.405Z,28.40
2019-03-26T14:04:40.846Z,28.40
2019-03-26T14:07:36.544Z,28.40
2019-03-26T14:10:40.927Z,28.40
2019-03-26T14:13:29.099Z,28.40
2019-03-26T14:16:26.250Z,28.40
2019-03-26T14:19:22.012Z,28.40
2019-03-26T14:22:17.868Z,28.40
2019-03-26T14:25:14.825Z,28.40
2019-03-26T14:28:10.571Z,28.40
2019-03-26T14:31:07.967Z,28.40
2019-03-26T14:34:04.644Z,28.30
2019-03-26T14:37:01.696Z,28.30
2019-03-26T14:39:57.745Z,28.30
2019-03-26T14:42:53.453Z,28.30
2019-03-26T14:45:49.572Z,28.30
2019-03-26T14:48:44.940Z,28.30
2019-03-26T14:51:40.396Z,28.30
2019-03-26T14:54:36.531Z,28.30
2019-03-26T14:57:32.194Z,28.20
2019-03-26T15:00:27.873Z,28.20
2019-03-26T15:03:25.422Z,28.20
2019-03-26T15:06:21.371Z,28.20
2019-03-26T15:09:17.354Z,28.20
2019-03-26T15:12:14.205Z,28.20
2019-03-26T15:15:10.328Z,28.20
2019-03-26T15:18:06.225Z,28.20
2019-03-26T15:21:01.805Z,28.20
2019-03-26T15:23:57.141Z,28.20
2019-03-26T15:26:53.651Z,28.20
2019-03-26T15:29:52.038Z,28.20
2019-03-26T15:32:49.745Z,28.20
2019-03-26T15:35:45.623Z,28.20
2019-03-26T15:38:42.754Z,28.20
2019-03-26T15:41:39.675Z,28.20
2019-03-26T15:44:36.795Z,28.20
2019-03-26T15:47:32.757Z,28.10
2019-03-26T15:50:49.499Z,28.10
2019-03-26T15:53:46.109Z,28.10
2019-03-26T15:56:47.316Z,28.10
2019-03-26T15:59:43.023Z,28.10
2019-03-26T16:02:48.714Z,28.10
2019-03-26T16:05:46.086Z,28.10
2019-03-26T16:08:44.592Z,28.10
2019-03-26T16:11:48.196Z,28.10
2019-03-26T16:14:44.085Z,28.10
2019-03-26T16:17:44.029Z,28.10
2019-03-26T16:20:39.928Z,28.10
2019-03-26T16:23:40.465Z,28.10
2019-03-26T16:26:45.618Z,28.10
2019-03-26T16:29:58.369Z,28.10
2019-03-26T16:32:55.333Z,28.10
2019-03-26T16:35:55.385Z,28.10
2019-03-26T16:38:53.101Z,28.10
2019-03-26T16:41:49.631Z,28.10
2019-03-26T16:44:46.770Z,28.10
2019-03-26T16:47:42.789Z,28.10
2019-03-26T16:50:41.567Z,28.00
2019-03-26T16:53:40.500Z,28.00
2019-03-26T16:56:34.890Z,28.00
2019-03-26T16:59:38.363Z,28.00
2019-03-26T17:02:37.704Z,28.00
2019-03-26T17:05:35.462Z,27.90
2019-03-26T17:08:36.383Z,27.60
2019-03-26T17:11:31.317Z,27.30
2019-03-26T17:14:28.164Z,27.10
2019-03-26T17:17:24.121Z,27.10
2019-03-26T17:20:19.691Z,26.90
2019-03-26T17:23:16.389Z,26.80
2019-03-26T17:26:15.342Z,26.70
2019-03-26T17:29:10.763Z,26.70
2019-03-26T17:32:07.127Z,26.70
2019-03-26T17:35:03.034Z,26.50
2019-03-26T17:38:00.410Z,26.50
2019-03-26T17:41:09.430Z,26.40
2019-03-26T17:44:07.845Z,26.30
2019-03-26T17:47:04.823Z,26.20
2019-03-26T17:50:03.970Z,26.20
2019-03-26T17:52:59.819Z,26.10
2019-03-26T17:55:56.462Z,26.00
2019-03-26T17:58:52.576Z,26.00
2019-03-26T18:01:48.511Z,25.80
2019-03-26T18:04:44.904Z,25.80
2019-03-26T18:07:40.422Z,25.70
2019-03-26T18:10:36.304Z,25.70
2019-03-26T18:13:32.374Z,25.60
2019-03-26T18:16:43.260Z,25.60
2019-03-26T18:19:41.161Z,25.50
2019-03-26T18:22:36.672Z,25.40
2019-03-26T18:25:32.175Z,25.40
2019-03-26T18:28:27.600Z,25.40
2019-03-26T18:31:23.085Z,25.30
2019-03-26T18:34:18.470Z,25.20
2019-03-26T18:37:14.251Z,25.20
2019-03-26T18:40:09.923Z,25.10
2019-03-26T18:43:06.089Z,25.00
2019-03-26T18:46:01.629Z,25.00
2019-03-26T18:48:57.212Z,24.90
2019-03-26T18:51:53.003Z,24.80
2019-03-26T18:54:49.154Z,24.80
2019-03-26T18:57:44.626Z,24.80
2019-03-26T19:00:41.715Z,24.70
2019-03-26T19:03:37.865Z,24.70
2019-03-26T19:06:33.782Z,24.60
2019-03-26T19:09:29.251Z,24.60
2019-03-26T19:12:24.628Z,24.50
2019-03-26T19:15:20.744Z,24.50
2019-03-26T19:18:16.182Z,24.60
2019-03-26T19:21:11.868Z,24.50
2019-03-26T19:24:07.513Z,24.50
2019-03-26T19:27:04.367Z,24.40
2019-03-26T19:30:00.499Z,24.40
2019-03-26T19:32:57.638Z,24.40
2019-03-26T19:35:53.315Z,24.30
2019-03-26T19:38:49.245Z,24.30
2019-03-26T19:41:44.568Z,24.30
2019-03-26T19:44:41.896Z,24.30
2019-03-26T19:47:36.766Z,24.20
2019-03-26T19:50:32.271Z,24.20
2019-03-26T19:53:27.855Z,24.20
2019-03-26T19:56:23.774Z,24.20
2019-03-26T19:59:19.540Z,24.10
2019-03-26T20:02:15.171Z,24.10
2019-03-26T20:05:11.679Z,24.10
2019-03-26T20:08:07.492Z,24.10
2019-03-26T20:11:03.127Z,24.10
2019-03-26T20:13:58.470Z,24.00
2019-03-26T20:16:53.716Z,24.00
2019-03-26T20:19:49.692Z,23.90
2019-03-26T20:22:45.330Z,24.00
2019-03-26T20:25:41.363Z,23.90
2019-03-26T20:28:36.935Z,23.90
2019-03-26T20:31:33.178Z,23.80
2019-03-26T20:34:30.676Z,23.80
2019-03-26T20:37:26.246Z,23.80
2019-03-26T20:40:21.985Z,23.70
2019-03-26T20:43:18.057Z,23.70
2019-03-26T20:46:14.151Z,23.70
2019-03-26T20:49:09.798Z,23.60
2019-03-26T20:52:05.614Z,23.70
2019-03-26T20:55:01.248Z,23.60
2019-03-26T20:57:57.056Z,23.60
2019-03-26T21:00:52.707Z,23.60
2019-03-26T21:03:50.090Z,23.50
2019-03-26T21:06:46.107Z,23.60
2019-03-26T21:09:41.931Z,23.60
2019-03-26T21:12:37.310Z,23.50
2019-03-26T21:15:33.022Z,23.50
2019-03-26T21:18:29.033Z,23.40
2019-03-26T21:21:24.716Z,23.40
2019-03-26T21:24:20.633Z,23.50
2019-03-26T21:27:17.079Z,23.40
2019-03-26T21:30:15.993Z,23.50
2019-03-26T21:33:12.082Z,23.50
2019-03-26T21:36:08.299Z,23.50
2019-03-26T21:39:04.496Z,23.40
2019-03-26T21:42:01.066Z,23.50
2019-03-26T21:44:56.430Z,23.50
2019-03-26T21:47:51.598Z,23.40
2019-03-26T21:50:47.423Z,23.40
2019-03-26T21:53:43.541Z,23.40
2019-03-26T21:56:39.264Z,23.30
2019-03-26T21:59:34.948Z,23.30
2019-03-26T22:02:31.093Z,23.40
2019-03-26T22:05:26.972Z,23.40
2019-03-26T22:08:22.801Z,23.30
2019-03-26T22:11:18.368Z,23.30
2019-03-26T22:14:18.329Z,23.30
2019-03-26T22:17:11.012Z,23.20
2019-03-26T22:20:07.959Z,23.20
2019-03-26T22:23:03.837Z,23.20
2019-03-26T22:25:59.710Z,23.20
2019-03-26T22:28:55.468Z,23.10
2019-03-26T22:31:51.291Z,23.10
2019-03-26T22:34:46.512Z,23.20
2019-03-26T22:37:42.188Z,23.20
2019-03-26T22:40:37.920Z,23.10
2019-03-26T22:43:33.607Z,23.10
2019-03-26T22:46:29.242Z,23.10
2019-03-26T22:49:24.787Z,23.00
2019-03-26T22:52:20.470Z,22.90
2019-03-26T22:55:16.353Z,23.00
2019-03-26T22:58:12.037Z,23.00
2019-03-26T23:01:08.978Z,23.00
2019-03-26T23:04:05.927Z,23.00
2019-03-26T23:07:02.019Z,23.00
2019-03-26T23:09:59.016Z,23.00
2019-03-26T23:12:54.308Z,22.90
2019-03-26T23:15:50.215Z,22.90
2019-03-26T23:18:45.431Z,23.00
2019-03-26T23:21:40.627Z,23.20
2019-03-26T23:24:36.025Z,23.40
2019-03-26T23:27:31.289Z,23.50
2019-03-26T23:30:27.506Z,23.70
2019-03-26T23:33:22.900Z,23.80
2019-03-26T23:36:18.730Z,23.90
2019-03-26T23:39:14.402Z,24.00
2019-03-26T23:42:10.143Z,24.10
2019-03-26T23:45:05.813Z,24.20
2019-03-26T23:48:01.391Z,24.20
2019-03-26T23:50:57.170Z,24.30
2019-03-26T23:53:53.524Z,24.40
2019-03-26T23:56:49.390Z,24.40
2019-03-26T23:59:45.180Z,24.50
